Latest Weather Observations for Red Rocks Point

IDW60801

Issued at 8:35 pm WST Thursday 2 October 2014 (issued every 30 minutes, with the page automatically refreshed every 10 minutes)

About weather observations | Map of weather stations | Latest weather observations for WA | Other Formats
Station Details ID: 011053 Name: RED ROCKS POINT Lat: -32.20 Lon: 127.53 Height: 3.1 m
Data from the previous 72 hours. | See also: Recent months for locations in Western Australia
Date/Time
WST
Temp
°C
App
Temp
°C
Dew
Point
Rel
Hum
%
Delta-T
°C
Wind Press
QNH
hPa
Press
MSL
hPa
Rain
since 9 am
mm
Dir
 
Spd
km/h
Gust
km/h
Spd
kts
Gust
kts
02/08:30pm 17.5 13.2 12.2 71 2.9 ENE 26 39 14 21 1018.2 - 0.0
02/08:00pm 17.9 12.5 13.8 77 2.3 ENE 35 43 19 23 1018.5 - 0.0
02/07:30pm 17.9 12.0 14.8 82 1.8 ENE 39 46 21 25 1018.7 - 0.0
02/07:00pm 17.7 11.8 14.6 82 1.8 E 39 46 21 25 1018.7 - 0.0
02/06:30pm 17.6 12.1 14.7 83 1.7 ENE 37 43 20 23 1019.2 - 0.0
02/06:00pm 17.5 12.0 14.8 84 1.6 E 37 43 20 23 1018.9 1018.9 0.0
02/05:30pm 17.5 11.7 15.0 85 1.5 E 39 44 21 24 1018.9 - 0.0
02/05:00pm 17.6 12.9 14.9 84 1.6 E 33 41 18 22 1019.3 - 0.0
02/04:30pm 17.6 13.0 14.5 82 1.8 E 32 37 17 20 1019.5 - 0.0
02/04:00pm 17.6 13.0 14.5 82 1.8 E 32 35 17 19 1019.3 - 0.0
02/03:30pm 17.9 13.4 14.8 82 1.8 E 32 35 17 19 1019.1 - 0.0
02/03:00pm 18.3 14.3 15.2 82 1.8 E 30 33 16 18 1019.2 1019.2 0.0
02/02:30pm 18.0 13.3 14.9 82 1.8 E 33 37 18 20 1019.0 - 0.0
02/02:00pm 18.6 14.0 15.1 80 2.0 E 33 39 18 21 1019.0 - 0.0
02/01:30pm 18.7 14.6 14.8 78 2.3 E 30 35 16 19 1019.4 - 0.0
02/01:00pm 18.8 14.3 14.9 78 2.3 E 32 39 17 21 1019.8 - 0.0
02/12:30pm 18.8 14.1 14.9 78 2.3 E 33 39 18 21 1020.4 - 0.0
02/12:00pm 18.8 14.1 14.9 78 2.3 E 33 39 18 21 1020.9 1020.9 0.0
02/11:30am 18.7 13.9 14.6 77 2.4 E 33 39 18 21 1021.3 - 0.0
02/11:00am 19.2 14.8 15.1 77 2.4 E 32 37 17 20 1021.8 - 0.0
02/10:30am 19.2 14.6 15.1 77 2.4 E 33 39 18 21 1022.0 - 0.0
02/10:00am 19.0 14.5 14.9 77 2.4 E 32 37 17 20 1022.4 - 0.0
02/09:30am 18.5 13.8 14.4 77 2.4 E 32 39 17 21 1022.9 - 0.0
02/09:00am 18.3 13.4 14.2 77 2.3 E 33 39 18 21 1023.0 1023.0 0.0
02/08:30am 18.1 12.5 14.4 79 2.1 E 37 41 20 22 1023.1 - 0.0
02/08:00am 17.8 12.5 14.3 80 2.0 E 35 41 19 22 1023.5 - 0.0
02/07:30am 17.5 14.0 14.4 82 1.8 ENE 26 32 14 17 1024.0 - 0.0
02/07:00am 16.5 13.6 14.0 85 1.4 ENE 22 28 12 15 1023.8 - 0.0
02/06:30am 15.9 13.0 13.9 88 1.1 ENE 22 28 12 15 1023.7 - 0.0
02/06:00am 14.9 12.6 13.1 89 1.0 NE 17 22 9 12 1023.6 1023.6 0.0
02/05:30am 13.6 11.5 12.3 92 0.7 NE 15 17 8 9 1023.6 - 0.0
02/05:00am 13.7 11.2 12.3 91 0.8 NE 17 20 9 11 1023.5 - 0.0
02/04:30am 14.0 11.1 12.2 89 1.0 NE 19 22 10 12 1023.1 - 0.0
02/04:00am 14.4 10.8 13.0 91 0.8 ENE 24 30 13 16 1023.0 - 0.0
02/03:30am 14.4 10.8 13.0 91 0.8 ENE 24 32 13 17 1022.8 - 0.0
02/03:00am 13.3 12.1 11.5 89 1.0 NE 9 17 5 9 1023.3 1023.3 0.0
02/02:30am 13.9 12.0 11.8 87 1.1 NNE 13 20 7 11 1023.3 - 0.0
02/02:00am 15.0 12.8 12.1 83 1.6 NNE 15 43 8 23 1023.3 - 0.0
02/01:55am 15.6 12.8 12.7 83 1.6 NNE 19 43 10 23 1023.3 - 0.0
02/01:30am 15.9 9.5 13.2 84 1.5 E 39 44 21 24 1023.1 - 0.0
02/01:00am 15.9 9.9 13.4 85 1.4 E 37 43 20 23 1023.6 - 0.0
02/12:30am 16.0 10.0 13.3 84 1.5 E 37 43 20 23 1024.1 - 0.0
02/12:00am 16.0 10.0 13.3 84 1.5 E 37 43 20 23 1024.3 1024.3 0.0
 
Date/Time
WST
Temp
°C
App
Temp
°C
Dew
Point
Rel
Hum
%
Delta-T
°C
Wind Press
QNH
hPa
Press
MSL
hPa
Rain
since 9 am
mm
Dir
 
Spd
km/h
Gust
km/h
Spd
kts
Gust
kts
01/11:30pm 16.0 10.4 13.3 84 1.5 E 35 41 19 22 1024.7 - 0.0
01/11:00pm 16.1 10.5 13.4 84 1.5 E 35 41 19 22 1025.0 - 0.0
01/10:30pm 16.0 9.9 12.9 82 1.7 E 37 43 20 23 1025.5 - 0.0
01/10:00pm 16.0 9.9 13.1 83 1.6 E 37 43 20 23 1025.6 - 0.0
01/09:30pm 16.1 10.1 13.2 83 1.6 E 37 44 20 24 1025.8 - 0.0
01/09:00pm 16.0 9.8 12.7 81 1.8 E 37 43 20 23 1025.9 1025.9 0.0
01/08:30pm 16.0 10.2 12.6 80 1.9 E 35 43 19 23 1026.0 - 0.0
01/08:00pm 16.1 10.3 12.8 81 1.8 E 35 43 19 23 1025.8 - 0.0
01/07:30pm 16.0 9.8 12.6 80 1.9 E 37 44 20 24 1025.7 - 0.0
01/07:00pm 16.1 9.9 12.5 79 2.0 E 37 44 20 24 1025.5 - 0.0
01/06:30pm 16.1 9.5 12.7 80 1.9 E 39 44 21 24 1025.2 - 0.0
01/06:00pm 16.1 9.5 12.5 79 2.0 E 39 43 21 23 1025.0 1025.0 0.0
01/05:30pm 16.1 9.3 12.1 77 2.2 E 39 44 21 24 1024.7 - 0.0
01/05:00pm 16.4 9.4 12.4 77 2.2 E 41 46 22 25 1024.8 - 0.0
01/04:30pm 16.7 9.9 12.0 74 2.6 E 39 46 21 25 1024.7 - 0.0
01/04:00pm 16.8 10.0 11.9 73 2.7 E 39 46 21 25 1024.7 - 0.0
01/03:30pm 17.0 10.2 12.1 73 2.7 E 39 46 21 25 1024.7 - 0.0
01/03:00pm 17.4 11.2 12.7 74 2.6 E 37 44 20 24 1024.9 1024.9 0.0
01/02:30pm 17.4 10.6 11.9 70 3.0 E 39 46 21 25 1024.9 - 0.0
01/02:00pm 17.6 10.5 12.1 70 3.0 E 41 46 22 25 1025.1 - 0.0
01/01:30pm 17.7 11.3 11.9 69 3.2 E 37 43 20 23 1025.3 - 0.0
01/01:00pm 17.7 10.8 11.7 68 3.3 E 39 46 21 25 1025.7 - 0.0
01/12:30pm 17.7 10.7 11.3 66 3.5 E 39 44 21 24 1026.1 - 0.0
01/12:00pm 17.8 10.9 11.6 67 3.4 E 39 43 21 23 1026.6 1026.6 0.0
01/11:30am 17.6 11.0 11.2 66 3.5 E 37 44 20 24 1027.0 - 0.0
01/11:00am 18.0 11.5 11.6 66 3.5 E 37 43 20 23 1027.4 - 0.0
01/10:30am 17.9 11.7 11.5 66 3.5 E 35 43 19 23 1028.0 - 0.0
01/10:00am 18.0 12.3 11.8 67 3.4 E 33 39 18 21 1028.2 - 0.0
01/09:30am 17.9 12.3 11.5 66 3.5 E 32 39 17 21 1028.5 - 0.0
01/09:00am 17.4 11.7 11.0 66 3.4 E 32 37 17 20 1028.7 1028.7 0.0
01/08:30am 17.2 11.8 10.8 66 3.4 E 30 37 16 20 1028.7 - 0.0
01/08:00am 17.0 11.2 10.8 67 3.3 E 32 35 17 19 1028.7 - 0.0
01/07:30am 16.7 11.7 11.0 69 3.1 E 28 35 15 19 1028.5 - 0.0
01/07:00am 16.5 11.3 10.4 67 3.2 E 28 35 15 19 1028.4 - 0.0
01/06:30am 16.3 11.9 10.4 68 3.1 ESE 24 30 13 16 1028.4 - 0.0
01/06:00am 15.8 10.9 10.1 69 3.0 ESE 26 32 14 17 1028.1 1028.1 0.0
01/05:30am 15.5 11.1 10.3 71 2.7 ESE 24 32 13 17 1027.9 - 0.0
01/05:00am 15.7 11.2 11.3 75 2.4 ESE 26 33 14 18 1027.6 - 0.0
01/04:30am 15.3 11.0 10.9 75 2.3 ESE 24 28 13 15 1027.4 - 0.0
01/04:00am 15.3 10.9 10.5 73 2.5 ESE 24 28 13 15 1027.3 - 0.0
01/03:30am 15.5 11.2 10.7 73 2.5 ESE 24 30 13 16 1027.0 - 0.0
01/03:00am 15.3 10.9 10.5 73 2.5 ESE 24 28 13 15 1026.8 1026.8 0.0
01/02:30am 15.5 11.8 11.5 77 2.2 ESE 22 26 12 14 1026.7 - 0.0
01/02:00am 15.4 11.1 10.8 74 2.4 ESE 24 28 13 15 1026.7 - 0.0
01/01:30am 15.5 11.3 11.1 75 2.3 ESE 24 28 13 15 1026.6 - 0.0
01/01:00am 15.6 11.4 11.0 74 2.5 ESE 24 28 13 15 1026.6 - 0.0
01/12:30am 15.7 11.7 11.7 77 2.2 SE 24 30 13 16 1026.6 - 0.0
01/12:00am 15.8 11.6 11.0 73 2.5 ESE 24 26 13 14 1026.8 1026.8 0.0
 
Date/Time
WST
Temp
°C
App
Temp
°C
Dew
Point
Rel
Hum
%
Delta-T
°C
Wind Press
QNH
hPa
Press
MSL
hPa
Rain
since 9 am
mm
Dir
 
Spd
km/h
Gust
km/h
Spd
kts
Gust
kts
30/11:30pm 15.8 12.2 11.8 77 2.2 SE 22 26 12 14 1026.9 - 0.0
30/11:00pm 15.8 12.0 11.0 73 2.6 SE 22 26 12 14 1027.0 - 0.0
30/10:30pm 15.8 12.0 11.0 73 2.6 SE 22 26 12 14 1027.1 - 0.0
30/10:00pm 16.0 12.4 11.8 76 2.3 ESE 22 26 12 14 1027.1 - 0.0
30/09:30pm 15.9 12.1 11.1 73 2.6 SE 22 26 12 14 1027.0 - 0.0
30/09:00pm 15.9 12.5 11.1 73 2.6 SE 20 24 11 13 1026.9 1026.9 0.0
30/08:30pm 15.9 12.5 11.1 73 2.6 SE 20 26 11 14 1026.8 - 0.0
30/08:00pm 16.0 12.6 11.4 74 2.5 SE 20 24 11 13 1026.6 - 0.0
30/07:30pm 16.1 12.7 11.3 73 2.6 SE 20 22 11 12 1026.5 - 0.0
30/07:00pm 16.1 12.7 11.3 73 2.6 SSE 20 24 11 13 1026.2 - 0.0
30/06:30pm 16.2 12.8 11.4 73 2.6 SSE 20 22 11 12 1025.6 - 0.0
30/06:00pm 16.2 12.7 10.9 71 2.8 S 20 22 11 12 1025.2 1025.2 0.0
30/05:30pm 16.4 13.4 11.8 74 2.5 SSE 19 22 10 12 1024.9 - 0.0
30/05:00pm 16.5 13.3 11.9 74 2.5 S 20 22 11 12 1024.5 - 0.0
30/04:30pm 17.0 13.6 11.3 69 3.1 S 20 22 11 12 1024.1 - 0.0
30/04:00pm 17.7 14.4 11.5 67 3.4 S 20 24 11 13 1023.8 - 0.0
30/03:30pm 18.1 14.3 11.2 64 3.7 S 22 26 12 14 1023.6 - 0.0
30/03:00pm 18.6 15.6 11.9 65 3.7 S 19 24 10 13 1023.5 1023.5 0.0
30/02:30pm 19.1 16.0 12.1 64 3.9 S 20 24 11 13 1023.4 - 0.0
30/02:00pm 19.1 15.6 12.1 64 3.9 S 22 26 12 14 1023.1 - 0.0
30/01:30pm 19.5 15.7 12.5 64 3.9 S 24 28 13 15 1023.0 - 0.0
30/01:00pm 20.1 16.7 12.6 62 4.2 S 22 28 12 15 1023.1 - 0.0
30/12:30pm 20.1 16.6 12.1 60 4.5 S 22 28 12 15 1023.0 - 0.0
30/12:00pm 19.7 16.0 11.5 59 4.5 S 22 28 12 15 1023.2 1023.2 0.0
30/11:30am 20.9 17.8 13.4 62 4.3 SSW 22 28 12 15 1023.2 - 0.0
30/11:00am 20.8 17.3 12.2 58 4.8 S 22 28 12 15 1023.2 - 0.0
30/10:30am 20.4 17.0 12.6 61 4.4 SSW 22 28 12 15 1023.2 - 0.0
30/10:00am 20.6 17.6 12.1 58 4.8 SSW 19 28 10 15 1023.0 - 0.0
30/09:30am 19.9 18.0 12.9 64 4.0 SW 15 20 8 11 1022.7 - 0.0
30/09:00am 19.7 18.3 13.4 67 3.6 SW 13 19 7 10 1022.5 1022.5 0.0
30/08:30am 18.8 17.7 13.2 70 3.2 SW 11 15 6 8 1022.3 - 0.0
30/08:00am 17.7 17.4 14.4 81 1.9 W 9 15 5 8 1022.1 - 0.0
30/07:30am 15.1 14.7 14.0 93 0.6 WNW 9 13 5 7 1021.9 - 0.0
30/07:00am 13.4 12.9 12.6 95 0.4 W 7 11 4 6 1021.7 - 0.0
30/06:30am 11.8 9.3 11.2 96 0.3 NW 15 20 8 11 1021.0 - 0.0
30/06:00am 9.8 6.4 9.3 97 0.2 NW 17 20 9 11 1020.7 1020.7 0.0
30/05:30am 8.8 4.8 8.4 97 0.2 NW 19 20 10 11 1020.1 - 0.0
30/05:00am 8.9 4.9 8.3 96 0.3 NW 19 20 10 11 1019.7 - 0.0
30/04:30am 8.8 4.8 8.2 96 0.3 NW 19 20 10 11 1019.1 - 0.0
30/04:00am 8.8 4.7 7.9 94 0.4 WNW 19 20 10 11 1018.5 - 0.0
30/03:30am 10.0 7.1 8.3 89 0.8 WNW 13 17 7 9 1018.2 - 0.0
30/03:00am 12.2 10.1 11.3 94 0.5 SW 13 17 7 9 1017.7 1017.7 0.0
30/02:30am 10.2 7.5 9.1 93 0.5 W 13 15 7 8 1017.6 - 0.0
30/02:00am 11.1 8.9 9.5 90 0.8 W 11 11 6 6 1017.3 - 0.0
30/01:30am 12.1 10.9 10.2 88 1.0 WSW 7 11 4 6 1017.3 - 0.0
30/01:00am 12.5 11.0 10.7 89 0.9 SW 9 13 5 7 1017.2 - 0.0
30/12:30am 14.0 12.8 11.5 85 1.3 SW 9 11 5 6 1017.3 - 0.0
30/12:00am 14.3 12.7 11.6 84 1.4 SSW 11 13 6 7 1017.2 1017.2 0.0
 
Date/Time
WST
Temp
°C
App
Temp
°C
Dew
Point
Rel
Hum
%
Delta-T
°C
Wind Press
QNH
hPa
Press
MSL
hPa
Rain
since 9 am
mm
Dir
 
Spd
km/h
Gust
km/h
Spd
kts
Gust
kts
29/11:30pm 15.1 13.7 12.2 83 1.6 SSW 11 15 6 8 1017.2 - 0.0
29/11:00pm 15.7 13.7 12.6 82 1.7 S 15 19 8 10 1017.1 - 0.0
29/10:30pm 15.5 13.9 12.8 84 1.5 S 13 17 7 9 1017.0 - 0.0
29/10:00pm 12.9 10.8 11.3 90 0.8 S 13 15 7 8 1016.9 - 0.0
29/09:30pm 11.1 9.9 9.7 91 0.7 S 6 11 3 6 1016.7 - 0.0
29/09:00pm 10.8 10.6 9.1 89 0.8 CALM 0 0 0 0 1016.6 1016.6 0.0

Other Formats:

Comma delimited format used in spreadsheet applications
http://www.bom.gov.au/fwo/IDW60801/IDW60801.94644.axf

JavaScript Object Notation format (JSON) in row-major order
http://www.bom.gov.au/fwo/IDW60801/IDW60801.94644.json